Pagina principale
METAR-TAF:

METAR-TAF

Aeroporti :

Kunming, Cina

latitudine: 25-01N, longitudine: 102-41E, altezza: 1892 m

Osservazione

Il bollettino è stato emesso 38 minuti fa, alle 21:00 UTC
Vento 10 kt da sud/sud-ovest
Temperature 16°C
Umidità 82%
Pressione 1018 hPa
Visibilità 10 km o più
nessuna nube inferiore a 1500 m e nessun cumulonembo

METAR: ZPPP 202100Z 21005MPS CAVOK 16/13 Q1018 NOSIG

Ora: 05:38 (21:38 UTC)

Previsione

Il bollettino è stato emesso 8 ore e 32 minuti fa, alle 13:06 UTC
Previsione valida dal 20 alle 18 UTC al 21 alle 18 UTC
Vento 12 kt da sud-ovest
Visibilità 10 km o più
Nubi sparse ad un'altezza di 2600 ft

TAF: ZPPP 201306Z 2018/2118 22006MPS 9999 SCT026 TX27/2108Z TN15/2023Z

Osservazioni e previsioni meteorologiche di più di 4000 aeroporti (messaggi METAR e TAF).

Le stazioni disponibili sono rappresentate dai dischi gialli e rossi sulla carta.

Puntare il mouse per vedere il nome della stazione.

Clicca sopra per visualizzare le osservazioni e previsioni meteorologiche.

Per cambiare la mappa : fare clic sui pulsanti verdi con una croce nera per ingrandire, il pulsante verde con un trattino per diminuire, o sulla freccia verde per le mappe adiacenti.


METAR-TAF: